Vyborg, Russia
Current Conditions -  °F | °C
As of 1:20 PM on Sunday 25 Jan 2015 (Local Time) from EFLP Reporting Station
Broken Clouds Broken Clouds  
Wind Chill: 19°   Ceiling: 500
Heat Index: 25°   Visibility: 6mi
Dew Point: 23°   Wind: 5mph
Humidity: 93%   Direction: 170°S
Pressure: 30.12"   Gusts: NA
Location:  60.7°N, 28.75°E
Report Text: EFLP 251020Z 17004KT 110V230 9999 BKN005 M04/M05 Q1020
Loading
Personal Weather Stations






























Interactive Weather Map New forecast layout! Learn more

10-Day Weather Forecast

Advertisements
Track Severe Weather on mobile